sensor_id;sensor_type;location;lat;lon;timestamp;temperature;humidity
35960;DHT22;22043;50.970;7.192;2022-10-19T00:00:19;12.60;99.90
35960;DHT22;22043;50.970;7.192;2022-10-19T00:02:45;12.60;99.90
35960;DHT22;22043;50.970;7.192;2022-10-19T00:05:10;12.60;99.90
35960;DHT22;22043;50.970;7.192;2022-10-19T00:07:36;12.60;99.90
35960;DHT22;22043;50.970;7.192;2022-10-19T00:10:03;12.60;99.90
35960;DHT22;22043;50.970;7.192;2022-10-19T00:12:29;12.60;99.90
35960;DHT22;22043;50.970;7.192;2022-10-19T00:14:55;12.60;99.90
35960;DHT22;22043;50.970;7.192;2022-10-19T00:17:20;12.60;99.90
35960;DHT22;22043;50.970;7.192;2022-10-19T00:19:46;12.60;99.90
35960;DHT22;22043;50.970;7.192;2022-10-19T00:22:12;12.60;99.90
35960;DHT22;22043;50.970;7.192;2022-10-19T00:24:37;12.60;99.90
35960;DHT22;22043;50.970;7.192;2022-10-19T00:27:03;12.60;99.90
35960;DHT22;22043;50.970;7.192;2022-10-19T00:29:30;12.50;99.90
35960;DHT22;22043;50.970;7.192;2022-10-19T00:31:55;12.50;99.90
35960;DHT22;22043;50.970;7.192;2022-10-19T00:34:21;12.50;99.90
35960;DHT22;22043;50.970;7.192;2022-10-19T00:36:46;12.50;99.90
35960;DHT22;22043;50.970;7.192;2022-10-19T00:39:14;12.50;99.90
35960;DHT22;22043;50.970;7.192;2022-10-19T00:41:40;12.50;99.90
35960;DHT22;22043;50.970;7.192;2022-10-19T00:46:59;12.50;99.90
35960;DHT22;22043;50.970;7.192;2022-10-19T00:49:29;12.50;99.90
35960;DHT22;22043;50.970;7.192;2022-10-19T00:52:02;12.40;99.90
35960;DHT22;22043;50.970;7.192;2022-10-19T00:54:30;12.40;99.90
35960;DHT22;22043;50.970;7.192;2022-10-19T00:56:56;12.40;99.90
35960;DHT22;22043;50.970;7.192;2022-10-19T00:59:24;12.40;99.90
35960;DHT22;22043;50.970;7.192;2022-10-19T01:01:51;12.40;99.90
35960;DHT22;22043;50.970;7.192;2022-10-19T01:04:19;12.40;99.90
35960;DHT22;22043;50.970;7.192;2022-10-19T01:06:46;12.40;99.90
35960;DHT22;22043;50.970;7.192;2022-10-19T01:09:12;12.40;99.90
35960;DHT22;22043;50.970;7.192;2022-10-19T01:14:54;12.30;99.90
35960;DHT22;22043;50.970;7.192;2022-10-19T01:23:10;12.10;99.90
35960;DHT22;22043;50.970;7.192;2022-10-19T01:31:49;12.00;99.90
35960;DHT22;22043;50.970;7.192;2022-10-19T01:34:46;11.90;99.90
35960;DHT22;22043;50.970;7.192;2022-10-19T01:37:39;11.90;99.90
35960;DHT22;22043;50.970;7.192;2022-10-19T01:40:12;11.80;99.90
35960;DHT22;22043;50.970;7.192;2022-10-19T01:42:53;11.80;99.90
35960;DHT22;22043;50.970;7.192;2022-10-19T01:48:09;11.80;99.90
35960;DHT22;22043;50.970;7.192;2022-10-19T01:51:08;11.80;99.90
35960;DHT22;22043;50.970;7.192;2022-10-19T01:53:40;11.80;99.90
35960;DHT22;22043;50.970;7.192;2022-10-19T01:56:08;11.70;99.90
35960;DHT22;22043;50.970;7.192;2022-10-19T01:58:36;11.70;99.90
35960;DHT22;22043;50.970;7.192;2022-10-19T02:01:06;11.70;99.90
35960;DHT22;22043;50.970;7.192;2022-10-19T02:03:33;11.70;99.90
35960;DHT22;22043;50.970;7.192;2022-10-19T02:06:01;11.70;99.90
35960;DHT22;22043;50.970;7.192;2022-10-19T02:08:35;11.60;99.90
35960;DHT22;22043;50.970;7.192;2022-10-19T02:11:03;11.60;99.90
35960;DHT22;22043;50.970;7.192;2022-10-19T02:13:29;11.50;99.90
35960;DHT22;22043;50.970;7.192;2022-10-19T02:15:59;11.60;99.90
35960;DHT22;22043;50.970;7.192;2022-10-19T02:18:32;11.50;99.90
35960;DHT22;22043;50.970;7.192;2022-10-19T02:21:01;11.50;99.90
35960;DHT22;22043;50.970;7.192;2022-10-19T02:23:27;11.50;99.90
35960;DHT22;22043;50.970;7.192;2022-10-19T02:25:53;11.50;99.90
35960;DHT22;22043;50.970;7.192;2022-10-19T02:28:19;11.50;99.90
35960;DHT22;22043;50.970;7.192;2022-10-19T02:30:45;11.50;99.90
35960;DHT22;22043;50.970;7.192;2022-10-19T02:33:11;11.50;99.90
35960;DHT22;22043;50.970;7.192;2022-10-19T02:35:37;11.50;99.90
35960;DHT22;22043;50.970;7.192;2022-10-19T02:38:04;11.40;99.90
35960;DHT22;22043;50.970;7.192;2022-10-19T02:40:36;11.40;99.90
35960;DHT22;22043;50.970;7.192;2022-10-19T02:43:10;11.40;99.90
35960;DHT22;22043;50.970;7.192;2022-10-19T02:45:42;11.40;99.90
35960;DHT22;22043;50.970;7.192;2022-10-19T02:48:19;11.40;99.90
35960;DHT22;22043;50.970;7.192;2022-10-19T02:50:46;11.40;99.90
35960;DHT22;22043;50.970;7.192;2022-10-19T02:53:12;11.30;99.90
35960;DHT22;22043;50.970;7.192;2022-10-19T02:55:38;11.40;99.90
35960;DHT22;22043;50.970;7.192;2022-10-19T02:58:04;11.40;99.90
35960;DHT22;22043;50.970;7.192;2022-10-19T03:00:30;11.40;99.90
35960;DHT22;22043;50.970;7.192;2022-10-19T03:02:55;11.40;99.90
35960;DHT22;22043;50.970;7.192;2022-10-19T03:05:21;11.40;99.90
35960;DHT22;22043;50.970;7.192;2022-10-19T03:07:47;11.40;99.90
35960;DHT22;22043;50.970;7.192;2022-10-19T03:10:12;11.40;99.90
35960;DHT22;22043;50.970;7.192;2022-10-19T03:12:38;11.40;99.90
35960;DHT22;22043;50.970;7.192;2022-10-19T03:15:04;11.40;99.90
35960;DHT22;22043;50.970;7.192;2022-10-19T03:17:30;11.50;99.90
35960;DHT22;22043;50.970;7.192;2022-10-19T03:19:55;11.50;99.90
35960;DHT22;22043;50.970;7.192;2022-10-19T03:22:21;11.50;99.90
35960;DHT22;22043;50.970;7.192;2022-10-19T03:24:46;11.50;99.90
35960;DHT22;22043;50.970;7.192;2022-10-19T03:27:12;11.50;99.90
35960;DHT22;22043;50.970;7.192;2022-10-19T03:29:38;11.50;99.90
35960;DHT22;22043;50.970;7.192;2022-10-19T03:32:04;11.40;99.90
35960;DHT22;22043;50.970;7.192;2022-10-19T03:34:29;11.40;99.90
35960;DHT22;22043;50.970;7.192;2022-10-19T03:36:55;11.30;99.90
35960;DHT22;22043;50.970;7.192;2022-10-19T03:39:23;11.20;99.90
35960;DHT22;22043;50.970;7.192;2022-10-19T03:41:49;11.20;99.90
35960;DHT22;22043;50.970;7.192;2022-10-19T03:44:15;11.10;99.90
35960;DHT22;22043;50.970;7.192;2022-10-19T03:46:40;11.10;99.90
35960;DHT22;22043;50.970;7.192;2022-10-19T03:49:07;11.00;99.90
35960;DHT22;22043;50.970;7.192;2022-10-19T03:51:34;11.10;99.90
35960;DHT22;22043;50.970;7.192;2022-10-19T03:54:05;11.10;99.90
35960;DHT22;22043;50.970;7.192;2022-10-19T03:56:33;11.00;99.90
35960;DHT22;22043;50.970;7.192;2022-10-19T03:59:00;11.10;99.90
35960;DHT22;22043;50.970;7.192;2022-10-19T04:01:34;11.00;99.90
35960;DHT22;22043;50.970;7.192;2022-10-19T04:04:03;11.10;99.90
35960;DHT22;22043;50.970;7.192;2022-10-19T04:06:31;11.10;99.90
35960;DHT22;22043;50.970;7.192;2022-10-19T04:08:58;11.10;99.90
35960;DHT22;22043;50.970;7.192;2022-10-19T04:11:26;11.10;99.90
35960;DHT22;22043;50.970;7.192;2022-10-19T04:13:53;11.00;99.90
35960;DHT22;22043;50.970;7.192;2022-10-19T04:16:19;11.00;99.90
35960;DHT22;22043;50.970;7.192;2022-10-19T04:18:45;11.00;99.90
35960;DHT22;22043;50.970;7.192;2022-10-19T04:21:37;11.00;99.90
35960;DHT22;22043;50.970;7.192;2022-10-19T04:24:08;11.00;99.90
35960;DHT22;22043;50.970;7.192;2022-10-19T04:26:38;11.00;99.90
35960;DHT22;22043;50.970;7.192;2022-10-19T04:29:04;11.10;99.90
35960;DHT22;22043;50.970;7.192;2022-10-19T04:31:30;11.10;99.90
35960;DHT22;22043;50.970;7.192;2022-10-19T04:33:55;11.00;99.90
35960;DHT22;22043;50.970;7.192;2022-10-19T04:36:22;11.10;99.90
35960;DHT22;22043;50.970;7.192;2022-10-19T04:38:47;11.10;99.90
35960;DHT22;22043;50.970;7.192;2022-10-19T04:41:15;11.10;99.90
35960;DHT22;22043;50.970;7.192;2022-10-19T04:43:41;11.20;99.90
35960;DHT22;22043;50.970;7.192;2022-10-19T04:46:17;11.20;99.90
35960;DHT22;22043;50.970;7.192;2022-10-19T04:48:44;11.20;99.90
35960;DHT22;22043;50.970;7.192;2022-10-19T04:51:11;11.30;99.90
35960;DHT22;22043;50.970;7.192;2022-10-19T04:53:38;11.30;99.90
35960;DHT22;22043;50.970;7.192;2022-10-19T04:56:05;11.30;99.90
35960;DHT22;22043;50.970;7.192;2022-10-19T04:58:31;11.30;99.90
35960;DHT22;22043;50.970;7.192;2022-10-19T05:00:57;11.30;99.90
35960;DHT22;22043;50.970;7.192;2022-10-19T05:03:23;11.30;99.90
35960;DHT22;22043;50.970;7.192;2022-10-19T05:05:48;11.30;99.90
35960;DHT22;22043;50.970;7.192;2022-10-19T05:08:14;11.40;99.90
35960;DHT22;22043;50.970;7.192;2022-10-19T05:10:40;11.40;99.90
35960;DHT22;22043;50.970;7.192;2022-10-19T05:13:05;11.30;99.90
35960;DHT22;22043;50.970;7.192;2022-10-19T05:15:31;11.40;99.90
35960;DHT22;22043;50.970;7.192;2022-10-19T05:17:57;11.40;99.90
35960;DHT22;22043;50.970;7.192;2022-10-19T05:20:23;11.40;99.90
35960;DHT22;22043;50.970;7.192;2022-10-19T05:22:49;11.40;99.90
35960;DHT22;22043;50.970;7.192;2022-10-19T05:25:15;11.30;99.90
35960;DHT22;22043;50.970;7.192;2022-10-19T05:27:41;11.30;99.90
35960;DHT22;22043;50.970;7.192;2022-10-19T05:30:07;11.30;99.90
35960;DHT22;22043;50.970;7.192;2022-10-19T05:32:33;11.20;99.90
35960;DHT22;22043;50.970;7.192;2022-10-19T05:34:59;11.20;99.90
35960;DHT22;22043;50.970;7.192;2022-10-19T05:37:25;11.10;99.90
35960;DHT22;22043;50.970;7.192;2022-10-19T05:39:51;11.10;99.90
35960;DHT22;22043;50.970;7.192;2022-10-19T05:42:16;11.10;99.90
35960;DHT22;22043;50.970;7.192;2022-10-19T05:44:42;11.00;99.90
35960;DHT22;22043;50.970;7.192;2022-10-19T05:47:08;11.00;99.90
35960;DHT22;22043;50.970;7.192;2022-10-19T05:49:33;11.00;99.90
35960;DHT22;22043;50.970;7.192;2022-10-19T05:51:59;10.90;99.90
35960;DHT22;22043;50.970;7.192;2022-10-19T05:54:25;10.90;99.90
35960;DHT22;22043;50.970;7.192;2022-10-19T05:56:50;10.80;99.90
35960;DHT22;22043;50.970;7.192;2022-10-19T05:59:18;10.70;99.90
35960;DHT22;22043;50.970;7.192;2022-10-19T06:01:44;10.80;99.90
35960;DHT22;22043;50.970;7.192;2022-10-19T06:04:11;10.70;99.90
35960;DHT22;22043;50.970;7.192;2022-10-19T06:06:39;10.70;99.90
35960;DHT22;22043;50.970;7.192;2022-10-19T06:09:05;10.60;99.90
35960;DHT22;22043;50.970;7.192;2022-10-19T06:11:33;10.60;99.90
35960;DHT22;22043;50.970;7.192;2022-10-19T06:14:01;10.70;99.90
35960;DHT22;22043;50.970;7.192;2022-10-19T06:16:29;10.60;99.90
35960;DHT22;22043;50.970;7.192;2022-10-19T06:18:55;10.60;99.90
35960;DHT22;22043;50.970;7.192;2022-10-19T06:21:24;10.60;99.90
35960;DHT22;22043;50.970;7.192;2022-10-19T06:23:59;10.70;99.90
35960;DHT22;22043;50.970;7.192;2022-10-19T06:26:27;10.70;99.90
35960;DHT22;22043;50.970;7.192;2022-10-19T06:28:57;10.70;99.90
35960;DHT22;22043;50.970;7.192;2022-10-19T06:31:25;10.70;99.90
35960;DHT22;22043;50.970;7.192;2022-10-19T06:33:51;10.70;99.90
35960;DHT22;22043;50.970;7.192;2022-10-19T06:36:19;10.70;99.90
35960;DHT22;22043;50.970;7.192;2022-10-19T06:38:46;10.70;99.90
35960;DHT22;22043;50.970;7.192;2022-10-19T06:41:12;10.70;99.90
35960;DHT22;22043;50.970;7.192;2022-10-19T06:43:38;10.70;99.90
35960;DHT22;22043;50.970;7.192;2022-10-19T06:46:05;10.70;99.90
35960;DHT22;22043;50.970;7.192;2022-10-19T06:48:31;10.70;99.90
35960;DHT22;22043;50.970;7.192;2022-10-19T06:50:58;10.70;99.90
35960;DHT22;22043;50.970;7.192;2022-10-19T06:53:24;10.70;99.90
35960;DHT22;22043;50.970;7.192;2022-10-19T06:55:50;10.80;99.90
35960;DHT22;22043;50.970;7.192;2022-10-19T06:58:15;10.80;99.90
35960;DHT22;22043;50.970;7.192;2022-10-19T07:00:41;10.80;99.90
35960;DHT22;22043;50.970;7.192;2022-10-19T07:03:07;10.90;99.90
35960;DHT22;22043;50.970;7.192;2022-10-19T07:05:32;10.90;99.90
35960;DHT22;22043;50.970;7.192;2022-10-19T07:07:58;10.90;99.90
35960;DHT22;22043;50.970;7.192;2022-10-19T07:10:23;10.90;99.90
35960;DHT22;22043;50.970;7.192;2022-10-19T07:12:49;10.90;99.90
35960;DHT22;22043;50.970;7.192;2022-10-19T07:15:15;10.90;99.90
35960;DHT22;22043;50.970;7.192;2022-10-19T07:17:41;10.90;99.90
35960;DHT22;22043;50.970;7.192;2022-10-19T07:20:07;11.00;99.90
35960;DHT22;22043;50.970;7.192;2022-10-19T07:22:32;11.00;99.90
35960;DHT22;22043;50.970;7.192;2022-10-19T07:24:58;11.00;99.90
35960;DHT22;22043;50.970;7.192;2022-10-19T07:27:24;11.00;99.90
35960;DHT22;22043;50.970;7.192;2022-10-19T07:29:49;11.10;99.90
35960;DHT22;22043;50.970;7.192;2022-10-19T07:32:15;11.00;99.90
35960;DHT22;22043;50.970;7.192;2022-10-19T07:34:40;11.10;99.90
35960;DHT22;22043;50.970;7.192;2022-10-19T07:37:06;11.10;99.90
35960;DHT22;22043;50.970;7.192;2022-10-19T07:39:32;11.10;99.90
35960;DHT22;22043;50.970;7.192;2022-10-19T07:41:57;11.20;99.90
35960;DHT22;22043;50.970;7.192;2022-10-19T07:44:23;11.20;99.90
35960;DHT22;22043;50.970;7.192;2022-10-19T07:46:49;11.20;99.90
35960;DHT22;22043;50.970;7.192;2022-10-19T07:49:15;11.30;99.90
35960;DHT22;22043;50.970;7.192;2022-10-19T07:51:43;11.30;99.90
35960;DHT22;22043;50.970;7.192;2022-10-19T07:54:09;11.30;99.90
35960;DHT22;22043;50.970;7.192;2022-10-19T07:56:35;11.40;99.90
35960;DHT22;22043;50.970;7.192;2022-10-19T07:59:02;11.40;99.90
35960;DHT22;22043;50.970;7.192;2022-10-19T08:01:32;11.40;99.90
35960;DHT22;22043;50.970;7.192;2022-10-19T08:04:00;11.40;99.90
35960;DHT22;22043;50.970;7.192;2022-10-19T08:06:26;11.50;99.90
35960;DHT22;22043;50.970;7.192;2022-10-19T08:08:52;11.50;99.90
35960;DHT22;22043;50.970;7.192;2022-10-19T08:11:27;11.50;99.90
35960;DHT22;22043;50.970;7.192;2022-10-19T08:13:54;11.60;99.90
35960;DHT22;22043;50.970;7.192;2022-10-19T08:16:28;11.60;99.90
35960;DHT22;22043;50.970;7.192;2022-10-19T08:18:57;11.60;99.90
35960;DHT22;22043;50.970;7.192;2022-10-19T08:21:24;11.60;99.90
35960;DHT22;22043;50.970;7.192;2022-10-19T08:23:50;11.60;99.90
35960;DHT22;22043;50.970;7.192;2022-10-19T08:26:16;11.60;99.90
35960;DHT22;22043;50.970;7.192;2022-10-19T08:28:42;11.60;99.90
35960;DHT22;22043;50.970;7.192;2022-10-19T08:31:09;11.70;99.90
35960;DHT22;22043;50.970;7.192;2022-10-19T08:33:35;11.70;99.90
35960;DHT22;22043;50.970;7.192;2022-10-19T08:36:04;11.70;99.90
35960;DHT22;22043;50.970;7.192;2022-10-19T08:38:30;11.80;99.90
35960;DHT22;22043;50.970;7.192;2022-10-19T08:40:57;11.80;99.90
35960;DHT22;22043;50.970;7.192;2022-10-19T08:43:32;11.90;99.90
35960;DHT22;22043;50.970;7.192;2022-10-19T08:49:18;11.90;99.90
35960;DHT22;22043;50.970;7.192;2022-10-19T08:51:51;12.00;99.90
35960;DHT22;22043;50.970;7.192;2022-10-19T08:54:18;12.00;99.90
35960;DHT22;22043;50.970;7.192;2022-10-19T08:56:53;12.10;99.90
35960;DHT22;22043;50.970;7.192;2022-10-19T09:02:38;12.10;99.90
35960;DHT22;22043;50.970;7.192;2022-10-19T09:05:02;12.20;99.90
35960;DHT22;22043;50.970;7.192;2022-10-19T09:07:33;12.20;99.90
35960;DHT22;22043;50.970;7.192;2022-10-19T09:10:25;12.20;99.90
35960;DHT22;22043;50.970;7.192;2022-10-19T09:12:59;12.20;99.90
35960;DHT22;22043;50.970;7.192;2022-10-19T09:15:37;12.20;99.90
35960;DHT22;22043;50.970;7.192;2022-10-19T09:18:13;12.30;99.90
35960;DHT22;22043;50.970;7.192;2022-10-19T09:20:43;12.30;99.90
35960;DHT22;22043;50.970;7.192;2022-10-19T09:26:19;12.40;99.90
35960;DHT22;22043;50.970;7.192;2022-10-19T09:29:05;12.40;99.90
35960;DHT22;22043;50.970;7.192;2022-10-19T09:31:38;12.40;99.90
35960;DHT22;22043;50.970;7.192;2022-10-19T09:34:16;12.40;99.90
35960;DHT22;22043;50.970;7.192;2022-10-19T09:36:51;12.50;99.90
35960;DHT22;22043;50.970;7.192;2022-10-19T09:39:17;12.50;99.90
35960;DHT22;22043;50.970;7.192;2022-10-19T09:41:45;12.50;99.90
35960;DHT22;22043;50.970;7.192;2022-10-19T09:44:12;12.50;99.90
35960;DHT22;22043;50.970;7.192;2022-10-19T09:47:01;12.60;99.90
35960;DHT22;22043;50.970;7.192;2022-10-19T09:49:44;12.60;99.90
35960;DHT22;22043;50.970;7.192;2022-10-19T09:54:50;12.70;99.90
35960;DHT22;22043;50.970;7.192;2022-10-19T09:57:23;12.70;99.90
35960;DHT22;22043;50.970;7.192;2022-10-19T09:59:50;12.80;99.90
35960;DHT22;22043;50.970;7.192;2022-10-19T10:02:20;12.80;99.90
35960;DHT22;22043;50.970;7.192;2022-10-19T10:05:04;12.80;99.90
35960;DHT22;22043;50.970;7.192;2022-10-19T10:07:40;12.80;99.90
35960;DHT22;22043;50.970;7.192;2022-10-19T10:10:20;12.90;99.90
35960;DHT22;22043;50.970;7.192;2022-10-19T10:12:47;12.90;99.90
35960;DHT22;22043;50.970;7.192;2022-10-19T10:15:18;13.00;99.90
35960;DHT22;22043;50.970;7.192;2022-10-19T10:17:46;12.90;99.90
35960;DHT22;22043;50.970;7.192;2022-10-19T10:20:27;13.00;99.90
35960;DHT22;22043;50.970;7.192;2022-10-19T10:23:04;13.00;99.90
35960;DHT22;22043;50.970;7.192;2022-10-19T10:25:35;13.10;99.90
35960;DHT22;22043;50.970;7.192;2022-10-19T10:30:45;13.10;99.90
35960;DHT22;22043;50.970;7.192;2022-10-19T10:33:21;13.10;99.90
35960;DHT22;22043;50.970;7.192;2022-10-19T10:35:53;13.20;99.90
35960;DHT22;22043;50.970;7.192;2022-10-19T10:38:48;13.20;99.90
35960;DHT22;22043;50.970;7.192;2022-10-19T10:41:16;13.20;99.90
35960;DHT22;22043;50.970;7.192;2022-10-19T10:44:01;13.30;99.90
35960;DHT22;22043;50.970;7.192;2022-10-19T10:46:52;13.30;99.90
35960;DHT22;22043;50.970;7.192;2022-10-19T10:49:20;13.30;99.90
35960;DHT22;22043;50.970;7.192;2022-10-19T10:51:57;13.30;99.90
35960;DHT22;22043;50.970;7.192;2022-10-19T10:54:25;13.30;99.90
35960;DHT22;22043;50.970;7.192;2022-10-19T10:59:34;13.40;99.90
35960;DHT22;22043;50.970;7.192;2022-10-19T11:04:48;13.40;99.90
35960;DHT22;22043;50.970;7.192;2022-10-19T11:07:21;13.40;99.90
35960;DHT22;22043;50.970;7.192;2022-10-19T11:10:53;13.50;99.90
35960;DHT22;22043;50.970;7.192;2022-10-19T11:13:22;13.50;99.90
35960;DHT22;22043;50.970;7.192;2022-10-19T11:16:49;13.50;99.90
35960;DHT22;22043;50.970;7.192;2022-10-19T11:18:54;13.60;99.90
35960;DHT22;22043;50.970;7.192;2022-10-19T11:24:19;13.60;99.90
35960;DHT22;22043;50.970;7.192;2022-10-19T11:29:48;13.70;99.90
35960;DHT22;22043;50.970;7.192;2022-10-19T11:38:28;13.70;99.90
35960;DHT22;22043;50.970;7.192;2022-10-19T11:43:44;13.80;99.90
35960;DHT22;22043;50.970;7.192;2022-10-19T11:46:27;13.80;99.90
35960;DHT22;22043;50.970;7.192;2022-10-19T11:49:13;13.80;99.90
35960;DHT22;22043;50.970;7.192;2022-10-19T11:51:58;13.80;99.90
35960;DHT22;22043;50.970;7.192;2022-10-19T11:57:42;13.90;99.90
35960;DHT22;22043;50.970;7.192;2022-10-19T12:00:11;13.90;99.90
35960;DHT22;22043;50.970;7.192;2022-10-19T12:08:31;14.00;99.90
35960;DHT22;22043;50.970;7.192;2022-10-19T12:14:33;14.00;99.90
35960;DHT22;22043;50.970;7.192;2022-10-19T12:17:06;14.10;99.90
35960;DHT22;22043;50.970;7.192;2022-10-19T12:19:37;14.10;99.90
35960;DHT22;22043;50.970;7.192;2022-10-19T12:22:06;14.10;99.90
35960;DHT22;22043;50.970;7.192;2022-10-19T12:24:36;14.10;99.90
35960;DHT22;22043;50.970;7.192;2022-10-19T12:27:02;14.10;99.90
35960;DHT22;22043;50.970;7.192;2022-10-19T12:29:35;14.10;99.90
35960;DHT22;22043;50.970;7.192;2022-10-19T12:32:03;14.20;99.90
35960;DHT22;22043;50.970;7.192;2022-10-19T12:35:03;14.10;99.90
35960;DHT22;22043;50.970;7.192;2022-10-19T12:37:31;14.20;99.90
35960;DHT22;22043;50.970;7.192;2022-10-19T12:40:12;14.20;99.90
35960;DHT22;22043;50.970;7.192;2022-10-19T12:43:11;14.20;99.90
35960;DHT22;22043;50.970;7.192;2022-10-19T12:48:22;14.20;99.90
35960;DHT22;22043;50.970;7.192;2022-10-19T12:53:28;14.30;99.90
35960;DHT22;22043;50.970;7.192;2022-10-19T12:56:04;14.30;99.90
35960;DHT22;22043;50.970;7.192;2022-10-19T13:01:04;14.30;99.90
35960;DHT22;22043;50.970;7.192;2022-10-19T13:03:36;14.30;99.90
35960;DHT22;22043;50.970;7.192;2022-10-19T13:08:57;14.40;99.90
35960;DHT22;22043;50.970;7.192;2022-10-19T13:11:23;14.40;99.90
35960;DHT22;22043;50.970;7.192;2022-10-19T13:16:55;14.40;99.90
35960;DHT22;22043;50.970;7.192;2022-10-19T13:19:22;14.40;99.90
35960;DHT22;22043;50.970;7.192;2022-10-19T13:21:53;14.40;99.90
35960;DHT22;22043;50.970;7.192;2022-10-19T13:32:55;14.40;99.90
35960;DHT22;22043;50.970;7.192;2022-10-19T13:46:02;14.50;99.90
35960;DHT22;22043;50.970;7.192;2022-10-19T13:51:19;14.50;99.90
35960;DHT22;22043;50.970;7.192;2022-10-19T13:59:29;14.50;99.90
35960;DHT22;22043;50.970;7.192;2022-10-19T14:07:35;14.50;99.90
35960;DHT22;22043;50.970;7.192;2022-10-19T14:10:17;14.50;99.90
35960;DHT22;22043;50.970;7.192;2022-10-19T14:12:45;14.60;99.90
35960;DHT22;22043;50.970;7.192;2022-10-19T14:17:43;14.60;99.90
35960;DHT22;22043;50.970;7.192;2022-10-19T14:20:33;14.60;99.90
35960;DHT22;22043;50.970;7.192;2022-10-19T14:23:22;14.60;99.90
35960;DHT22;22043;50.970;7.192;2022-10-19T14:25:56;14.60;99.90
35960;DHT22;22043;50.970;7.192;2022-10-19T14:28:23;14.60;99.90
35960;DHT22;22043;50.970;7.192;2022-10-19T14:30:56;14.60;99.90
35960;DHT22;22043;50.970;7.192;2022-10-19T14:33:23;14.60;99.90
35960;DHT22;22043;50.970;7.192;2022-10-19T14:35:50;14.60;99.90
35960;DHT22;22043;50.970;7.192;2022-10-19T14:40:56;14.60;99.90
35960;DHT22;22043;50.970;7.192;2022-10-19T14:43:24;14.60;99.90
35960;DHT22;22043;50.970;7.192;2022-10-19T14:48:36;14.60;99.90
35960;DHT22;22043;50.970;7.192;2022-10-19T14:51:13;14.60;99.90
35960;DHT22;22043;50.970;7.192;2022-10-19T14:53:51;14.60;99.90
35960;DHT22;22043;50.970;7.192;2022-10-19T14:56:32;14.60;99.90
35960;DHT22;22043;50.970;7.192;2022-10-19T14:59:02;14.60;99.90
35960;DHT22;22043;50.970;7.192;2022-10-19T15:01:29;14.60;99.90
35960;DHT22;22043;50.970;7.192;2022-10-19T15:03:55;14.60;99.90
35960;DHT22;22043;50.970;7.192;2022-10-19T15:06:23;14.60;99.90
35960;DHT22;22043;50.970;7.192;2022-10-19T15:08:58;14.60;99.90
35960;DHT22;22043;50.970;7.192;2022-10-19T15:11:35;14.60;99.90
35960;DHT22;22043;50.970;7.192;2022-10-19T15:14:16;14.60;99.90
35960;DHT22;22043;50.970;7.192;2022-10-19T15:19:17;14.60;99.90
35960;DHT22;22043;50.970;7.192;2022-10-19T15:21:44;14.60;99.90
35960;DHT22;22043;50.970;7.192;2022-10-19T15:24:26;14.50;99.90
35960;DHT22;22043;50.970;7.192;2022-10-19T15:26:53;14.60;99.90
35960;DHT22;22043;50.970;7.192;2022-10-19T15:29:21;14.60;99.90
35960;DHT22;22043;50.970;7.192;2022-10-19T15:31:47;14.60;99.90
35960;DHT22;22043;50.970;7.192;2022-10-19T15:34:42;14.60;99.90
35960;DHT22;22043;50.970;7.192;2022-10-19T15:37:17;14.50;99.90
35960;DHT22;22043;50.970;7.192;2022-10-19T15:39:43;14.60;99.90
35960;DHT22;22043;50.970;7.192;2022-10-19T15:42:34;14.60;99.90
35960;DHT22;22043;50.970;7.192;2022-10-19T15:45:01;14.60;99.90
35960;DHT22;22043;50.970;7.192;2022-10-19T15:47:27;14.50;99.90
35960;DHT22;22043;50.970;7.192;2022-10-19T15:49:58;14.50;99.90
35960;DHT22;22043;50.970;7.192;2022-10-19T15:52:34;14.50;99.90
35960;DHT22;22043;50.970;7.192;2022-10-19T15:55:00;14.50;99.90
35960;DHT22;22043;50.970;7.192;2022-10-19T15:59:56;14.50;99.90
35960;DHT22;22043;50.970;7.192;2022-10-19T16:02:22;14.50;99.90
35960;DHT22;22043;50.970;7.192;2022-10-19T16:04:52;14.40;99.90
35960;DHT22;22043;50.970;7.192;2022-10-19T16:07:24;14.40;99.90
35960;DHT22;22043;50.970;7.192;2022-10-19T16:09:50;14.40;99.90
35960;DHT22;22043;50.970;7.192;2022-10-19T16:12:16;14.30;99.90
35960;DHT22;22043;50.970;7.192;2022-10-19T16:14:42;14.30;99.90
35960;DHT22;22043;50.970;7.192;2022-10-19T16:17:10;14.30;99.90
35960;DHT22;22043;50.970;7.192;2022-10-19T16:19:36;14.30;99.90
35960;DHT22;22043;50.970;7.192;2022-10-19T16:22:02;14.20;99.90
35960;DHT22;22043;50.970;7.192;2022-10-19T16:24:28;14.20;99.90
35960;DHT22;22043;50.970;7.192;2022-10-19T16:26:53;14.10;99.90
35960;DHT22;22043;50.970;7.192;2022-10-19T16:29:19;14.10;99.90
35960;DHT22;22043;50.970;7.192;2022-10-19T16:31:45;14.10;99.90
35960;DHT22;22043;50.970;7.192;2022-10-19T16:34:10;14.10;99.90
35960;DHT22;22043;50.970;7.192;2022-10-19T16:36:37;14.00;99.90
35960;DHT22;22043;50.970;7.192;2022-10-19T16:39:02;14.00;99.90
35960;DHT22;22043;50.970;7.192;2022-10-19T16:41:29;14.00;99.90
35960;DHT22;22043;50.970;7.192;2022-10-19T16:43:56;13.90;99.90
35960;DHT22;22043;50.970;7.192;2022-10-19T16:46:22;13.90;99.90
35960;DHT22;22043;50.970;7.192;2022-10-19T16:48:49;13.90;99.90
35960;DHT22;22043;50.970;7.192;2022-10-19T16:53:53;13.90;99.90
35960;DHT22;22043;50.970;7.192;2022-10-19T16:56:18;13.80;99.90
35960;DHT22;22043;50.970;7.192;2022-10-19T16:58:44;13.80;99.90
35960;DHT22;22043;50.970;7.192;2022-10-19T17:01:13;13.80;99.90
35960;DHT22;22043;50.970;7.192;2022-10-19T17:03:40;13.80;99.90
35960;DHT22;22043;50.970;7.192;2022-10-19T17:06:07;13.80;99.90
35960;DHT22;22043;50.970;7.192;2022-10-19T17:08:33;13.70;99.90
35960;DHT22;22043;50.970;7.192;2022-10-19T17:11:14;13.70;99.90
35960;DHT22;22043;50.970;7.192;2022-10-19T17:13:41;13.60;99.90
35960;DHT22;22043;50.970;7.192;2022-10-19T17:16:07;13.60;99.90
35960;DHT22;22043;50.970;7.192;2022-10-19T17:18:33;13.60;99.90
35960;DHT22;22043;50.970;7.192;2022-10-19T17:21:11;13.60;99.90
35960;DHT22;22043;50.970;7.192;2022-10-19T17:23:38;13.60;99.90
35960;DHT22;22043;50.970;7.192;2022-10-19T17:26:04;13.50;99.90
35960;DHT22;22043;50.970;7.192;2022-10-19T17:28:30;13.50;99.90
35960;DHT22;22043;50.970;7.192;2022-10-19T17:31:04;13.50;99.90
35960;DHT22;22043;50.970;7.192;2022-10-19T17:33:30;13.50;99.90
35960;DHT22;22043;50.970;7.192;2022-10-19T17:36:05;13.50;99.90
35960;DHT22;22043;50.970;7.192;2022-10-19T17:38:31;13.50;99.90
35960;DHT22;22043;50.970;7.192;2022-10-19T17:41:08;13.50;99.90
35960;DHT22;22043;50.970;7.192;2022-10-19T17:43:35;13.50;99.90
35960;DHT22;22043;50.970;7.192;2022-10-19T17:46:03;13.40;99.90
35960;DHT22;22043;50.970;7.192;2022-10-19T17:48:31;13.50;99.90
35960;DHT22;22043;50.970;7.192;2022-10-19T17:51:01;13.40;99.90
35960;DHT22;22043;50.970;7.192;2022-10-19T17:53:29;13.40;99.90
35960;DHT22;22043;50.970;7.192;2022-10-19T17:55:59;13.40;99.90